createdAt,value
2019-04-21T00:02:14.806Z,12.10
2019-04-21T00:04:56.910Z,12.10
2019-04-21T00:07:31.322Z,12.10
2019-04-21T00:10:06.263Z,12.10
2019-04-21T00:12:35.659Z,12.10
2019-04-21T00:15:02.131Z,12.10
2019-04-21T00:17:24.138Z,12.00
2019-04-21T00:20:09.191Z,12.00
2019-04-21T00:22:41.179Z,12.00
2019-04-21T00:25:16.578Z,11.90
2019-04-21T00:27:46.472Z,11.80
2019-04-21T00:30:21.379Z,11.70
2019-04-21T00:32:45.049Z,11.70
2019-04-21T00:35:13.157Z,11.70
2019-04-21T00:38:02.304Z,11.60
2019-04-21T00:40:35.476Z,11.40
2019-04-21T00:42:59.906Z,11.40
2019-04-21T00:45:27.500Z,11.40
2019-04-21T00:48:11.384Z,11.20
2019-04-21T00:50:51.493Z,11.20
2019-04-21T00:53:24.694Z,11.40
2019-04-21T00:55:59.793Z,11.40
2019-04-21T00:58:28.644Z,11.40
2019-04-21T01:01:00.485Z,11.80
2019-04-21T01:03:35.539Z,12.00
2019-04-21T01:06:05.336Z,12.00
2019-04-21T01:08:31.145Z,11.80
2019-04-21T01:11:11.404Z,11.80
2019-04-21T01:13:41.574Z,11.90
2019-04-21T01:16:14.819Z,12.00
2019-04-21T01:18:44.244Z,12.30
2019-04-21T01:20:53.116Z,12.10
2019-04-21T01:23:23.437Z,11.90
2019-04-21T01:26:06.352Z,11.80
2019-04-21T01:28:39.925Z,11.70
2019-04-21T01:31:17.445Z,11.50
2019-04-21T01:33:50.380Z,11.50
2019-04-21T01:36:19.708Z,11.40
2019-04-21T01:38:59.110Z,11.50
2019-04-21T01:41:28.149Z,11.50
2019-04-21T01:43:57.841Z,11.60
2019-04-21T01:46:27.042Z,11.50
2019-04-21T01:48:54.157Z,11.60
2019-04-21T01:51:32.128Z,11.50
2019-04-21T01:54:36.154Z,11.70
2019-04-21T01:57:10.446Z,11.70
2019-04-21T01:59:34.895Z,11.80
2019-04-21T02:02:13.637Z,11.90
2019-04-21T02:04:47.387Z,12.00
2019-04-21T02:07:15.051Z,11.80
2019-04-21T02:09:51.015Z,11.80
2019-04-21T02:12:20.014Z,11.80
2019-04-21T02:14:59.222Z,11.70
2019-04-21T02:17:26.472Z,11.90
2019-04-21T02:19:53.838Z,11.80
2019-04-21T02:22:35.379Z,11.90
2019-04-21T02:25:06.024Z,11.90
2019-04-21T02:27:30.958Z,12.20
2019-04-21T02:30:12.111Z,12.60
2019-04-21T02:32:48.402Z,12.60
2019-04-21T02:35:24.627Z,12.80
2019-04-21T02:42:46.474Z,13.20
2019-04-21T02:45:22.910Z,13.40
2019-04-21T02:48:09.689Z,13.40
2019-04-21T02:50:36.209Z,13.40
2019-04-21T03:00:36.822Z,13.90
2019-04-21T03:03:19.942Z,13.90
2019-04-21T03:08:44.404Z,14.00
2019-04-21T03:11:11.032Z,13.60
2019-04-21T03:13:41.611Z,13.40
2019-04-21T03:16:16.991Z,13.20
2019-04-21T03:18:48.577Z,12.90
2019-04-21T03:21:18.580Z,12.70
2019-04-21T03:24:07.865Z,12.60
2019-04-21T03:26:36.329Z,12.80
2019-04-21T03:34:34.824Z,12.50
2019-04-21T03:36:49.929Z,12.30
2019-04-21T03:38:57.286Z,12.20
2019-04-21T03:44:09.929Z,11.70
2019-04-21T03:49:12.655Z,11.80
2019-04-21T03:51:45.895Z,11.80
2019-04-21T03:54:09.318Z,12.00
2019-04-21T04:02:18.628Z,11.90
2019-04-21T04:05:15.062Z,11.90
2019-04-21T04:07:49.924Z,11.80
2019-04-21T04:10:11.668Z,11.70
2019-04-21T04:12:50.465Z,11.50
2019-04-21T04:15:20.561Z,11.50
2019-04-21T04:17:46.796Z,11.40
2019-04-21T04:22:55.486Z,11.60
2019-04-21T04:25:27.422Z,11.70
2019-04-21T04:32:57.277Z,11.70
2019-04-21T04:35:46.147Z,11.70
2019-04-21T04:41:02.229Z,11.60
2019-04-21T04:43:31.123Z,11.30
2019-04-21T04:48:28.421Z,10.90
2019-04-21T04:53:43.890Z,10.70
2019-04-21T04:59:20.100Z,10.60
2019-04-21T05:03:48.956Z,10.40
2019-04-21T05:16:44.642Z,10.40
2019-04-21T05:19:10.535Z,10.30
2019-04-21T05:23:55.422Z,10.20
2019-04-21T05:26:29.910Z,10.30
2019-04-21T05:28:56.803Z,10.30
2019-04-21T05:31:57.045Z,10.30
2019-04-21T05:34:30.546Z,10.40
2019-04-21T05:37:14.156Z,10.40
2019-04-21T05:39:42.109Z,10.50
2019-04-21T05:42:10.478Z,10.50
2019-04-21T05:45:04.303Z,10.60
2019-04-21T05:47:39.839Z,10.60
2019-04-21T05:50:07.553Z,10.70
2019-04-21T05:52:44.699Z,10.60
2019-04-21T05:55:34.119Z,10.60
2019-04-21T05:57:57.290Z,10.60
2019-04-21T06:00:56.036Z,10.70
2019-04-21T06:03:09.840Z,10.70
2019-04-21T06:05:43.589Z,10.80
2019-04-21T06:08:09.926Z,10.60
2019-04-21T06:10:43.501Z,10.70
2019-04-21T06:13:22.175Z,10.70
2019-04-21T06:15:54.702Z,10.70
2019-04-21T06:18:22.116Z,10.70
2019-04-21T06:20:46.711Z,10.70
2019-04-21T06:23:20.393Z,10.80
2019-04-21T06:28:30.341Z,11.00
2019-04-21T06:31:08.191Z,11.00
2019-04-21T06:33:45.999Z,11.00
2019-04-21T06:41:32.555Z,11.20
2019-04-21T06:49:02.790Z,11.70
2019-04-21T06:51:36.016Z,11.80
2019-04-21T06:54:09.173Z,11.90
2019-04-21T06:56:47.909Z,12.00
2019-04-21T06:59:09.350Z,12.20
2019-04-21T07:02:19.393Z,12.40
2019-04-21T07:04:30.194Z,12.50
2019-04-21T07:06:50.018Z,12.80
2019-04-21T07:09:25.496Z,13.00
2019-04-21T07:11:53.873Z,13.20
2019-04-21T07:16:58.149Z,14.00
2019-04-21T07:19:35.241Z,14.30
2019-04-21T07:22:00.571Z,14.40
2019-04-21T07:24:32.032Z,14.70
2019-04-21T07:27:02.419Z,14.90
2019-04-21T07:29:39.519Z,15.20
2019-04-21T07:32:12.127Z,15.30
2019-04-21T07:34:37.919Z,15.50
2019-04-21T07:37:06.158Z,15.70
2019-04-21T07:39:40.303Z,16.00
2019-04-21T07:42:09.032Z,16.30
2019-04-21T07:44:39.462Z,17.10
2019-04-21T07:47:17.104Z,18.50
2019-04-21T07:50:07.402Z,20.20
2019-04-21T07:52:35.129Z,21.90
2019-04-21T07:55:12.445Z,22.70
2019-04-21T07:57:34.482Z,22.70
2019-04-21T08:00:16.089Z,22.90
2019-04-21T08:02:37.001Z,22.90
2019-04-21T08:10:12.013Z,23.30
2019-04-21T08:12:44.740Z,20.50
2019-04-21T08:15:19.486Z,19.60
2019-04-21T08:17:48.512Z,19.70
2019-04-21T08:20:21.605Z,21.00
2019-04-21T08:22:58.839Z,23.00
2019-04-21T08:25:30.838Z,24.00
2019-04-21T08:30:30.493Z,24.20
2019-04-21T08:33:08.656Z,23.30
2019-04-21T08:38:00.869Z,23.30
2019-04-21T08:40:36.435Z,24.10
2019-04-21T08:43:32.035Z,24.50
2019-04-21T08:45:42.793Z,25.30
2019-04-21T08:48:10.281Z,26.00
2019-04-21T08:50:37.658Z,26.30
2019-04-21T08:53:14.449Z,26.80
2019-04-21T08:56:30.395Z,26.70
2019-04-21T08:58:41.382Z,27.20
2019-04-21T09:01:23.916Z,26.70
2019-04-21T09:04:17.695Z,26.20
2019-04-21T09:06:58.605Z,25.80
2019-04-21T09:09:27.844Z,25.00
2019-04-21T09:11:54.257Z,25.10
2019-04-21T09:14:25.427Z,26.40
2019-04-21T09:16:52.905Z,27.60
2019-04-21T09:19:39.765Z,28.60
2019-04-21T09:22:00.519Z,29.80
2019-04-21T09:24:29.454Z,30.50
2019-04-21T09:27:03.779Z,29.90
2019-04-21T09:29:27.606Z,29.50
2019-04-21T09:31:49.659Z,29.50
2019-04-21T09:34:24.964Z,31.00
2019-04-21T09:37:08.957Z,31.80
2019-04-21T09:39:27.522Z,32.50
2019-04-21T09:42:00.616Z,31.40
2019-04-21T09:44:32.929Z,30.20
2019-04-21T09:47:01.943Z,29.20
2019-04-21T09:49:32.900Z,28.00
2019-04-21T09:52:02.285Z,26.90
2019-04-21T09:54:35.905Z,25.70
2019-04-21T09:57:08.909Z,24.70
2019-04-21T09:59:40.329Z,24.60
2019-04-21T10:02:15.539Z,24.70
2019-04-21T10:04:39.949Z,25.00
2019-04-21T10:07:23.673Z,25.90
2019-04-21T10:09:41.703Z,27.60
2019-04-21T10:12:11.896Z,27.70
2019-04-21T10:14:43.018Z,27.90
2019-04-21T10:17:33.054Z,27.50
2019-04-21T10:20:03.261Z,29.80
2019-04-21T10:22:33.155Z,30.10
2019-04-21T10:25:04.622Z,29.40
2019-04-21T10:27:36.861Z,28.40
2019-04-21T10:30:07.847Z,27.60
2019-04-21T10:32:38.583Z,28.50
2019-04-21T10:35:09.086Z,29.50
2019-04-21T10:37:49.834Z,30.00
2019-04-21T10:40:13.625Z,29.40
2019-04-21T10:42:43.974Z,28.60
2019-04-21T10:45:14.781Z,29.00
2019-04-21T10:47:47.078Z,28.90
2019-04-21T10:50:18.396Z,28.40
2019-04-21T10:53:20.839Z,28.20
2019-04-21T10:56:06.118Z,28.60
2019-04-21T10:58:34.282Z,28.40
2019-04-21T11:01:14.106Z,28.40
2019-04-21T11:03:51.412Z,28.40
2019-04-21T11:06:22.171Z,28.10
2019-04-21T11:08:55.551Z,28.60
2019-04-21T11:11:25.831Z,28.40
2019-04-21T11:13:56.894Z,28.70
2019-04-21T11:16:27.235Z,28.30
2019-04-21T11:18:58.011Z,28.40
2019-04-21T11:21:29.178Z,28.00
2019-04-21T11:23:59.847Z,28.50
2019-04-21T11:26:29.925Z,28.80
2019-04-21T11:29:01.081Z,29.00
2019-04-21T11:31:31.333Z,29.40
2019-04-21T11:34:01.214Z,30.20
2019-04-21T11:36:31.328Z,30.50
2019-04-21T11:39:31.618Z,29.90
2019-04-21T11:41:54.024Z,29.40
2019-04-21T11:44:24.907Z,29.20
2019-04-21T11:46:56.247Z,29.30
2019-04-21T11:49:30.240Z,29.40
2019-04-21T11:51:58.722Z,29.20
2019-04-21T11:54:28.883Z,28.40
2019-04-21T11:57:00.672Z,27.70
2019-04-21T11:59:30.898Z,27.70
2019-04-21T12:02:01.539Z,27.20
2019-04-21T12:04:32.079Z,27.20
2019-04-21T12:07:02.237Z,27.30
2019-04-21T12:09:33.418Z,27.40
2019-04-21T12:12:05.343Z,27.70
2019-04-21T12:14:36.385Z,27.20
2019-04-21T12:17:07.925Z,27.00
2019-04-21T12:19:38.778Z,27.00
2019-04-21T12:22:16.337Z,26.40
2019-04-21T12:24:42.891Z,26.00
2019-04-21T12:27:16.135Z,25.50
2019-04-21T12:29:47.989Z,24.80
2019-04-21T12:32:52.179Z,24.50
2019-04-21T12:35:23.775Z,24.40
2019-04-21T12:37:55.009Z,24.40
2019-04-21T12:40:28.346Z,24.50
2019-04-21T12:42:58.838Z,24.50
2019-04-21T12:45:29.591Z,24.40
2019-04-21T12:48:02.052Z,24.40
2019-04-21T12:50:33.965Z,24.10
2019-04-21T12:53:09.441Z,24.20
2019-04-21T12:55:43.999Z,24.20
2019-04-21T12:58:11.456Z,24.10
2019-04-21T13:00:42.809Z,24.30
2019-04-21T13:03:13.982Z,23.60
2019-04-21T13:05:45.375Z,23.40
2019-04-21T13:08:15.573Z,22.80
2019-04-21T13:10:46.432Z,23.20
2019-04-21T13:13:17.657Z,23.80
2019-04-21T13:15:49.402Z,24.10
2019-04-21T13:18:20.576Z,24.20
2019-04-21T13:20:51.850Z,24.10
2019-04-21T13:23:23.085Z,24.10
2019-04-21T13:25:54.164Z,23.90
2019-04-21T13:28:24.905Z,23.90
2019-04-21T13:30:56.063Z,23.80
2019-04-21T13:33:27.153Z,23.50
2019-04-21T13:35:59.124Z,23.50
2019-04-21T13:38:38.723Z,23.70
2019-04-21T13:41:27.199Z,23.80
2019-04-21T13:43:45.429Z,23.80
2019-04-21T13:46:15.740Z,23.80
2019-04-21T13:48:46.533Z,23.60
2019-04-21T13:51:19.823Z,23.50
2019-04-21T13:53:51.425Z,23.80
2019-04-21T13:56:22.756Z,23.70
2019-04-21T13:58:53.024Z,23.50
2019-04-21T14:01:23.556Z,23.60
2019-04-21T14:03:53.836Z,23.70
2019-04-21T14:06:24.652Z,23.90
2019-04-21T14:08:55.171Z,23.90
2019-04-21T14:11:25.265Z,24.10
2019-04-21T14:13:56.504Z,24.20
2019-04-21T14:16:27.022Z,24.00
2019-04-21T14:18:57.187Z,24.20
2019-04-21T14:21:29.305Z,24.40
2019-04-21T14:24:01.179Z,24.30
2019-04-21T14:26:32.131Z,24.10
2019-04-21T14:29:03.607Z,24.30
2019-04-21T14:31:34.630Z,24.40
2019-04-21T14:34:05.877Z,24.20
2019-04-21T14:36:37.055Z,24.30
2019-04-21T14:39:10.735Z,23.90
2019-04-21T14:41:40.640Z,23.70
2019-04-21T14:44:11.096Z,23.80
2019-04-21T14:46:58.103Z,24.20
2019-04-21T14:49:59.537Z,24.30
2019-04-21T14:52:34.931Z,24.30
2019-04-21T14:55:18.548Z,24.20
2019-04-21T14:57:49.394Z,23.90
2019-04-21T15:00:21.021Z,24.00
2019-04-21T15:02:51.819Z,23.90
2019-04-21T15:05:22.047Z,23.60
2019-04-21T15:07:53.178Z,23.40
2019-04-21T15:10:26.093Z,23.50
2019-04-21T15:12:56.138Z,23.50
2019-04-21T15:15:26.078Z,23.30
2019-04-21T15:17:57.897Z,23.30
2019-04-21T15:20:28.724Z,23.40
2019-04-21T15:23:00.138Z,23.50
2019-04-21T15:25:32.237Z,23.60
2019-04-21T15:28:03.265Z,23.50
2019-04-21T15:30:34.425Z,23.40
2019-04-21T15:33:04.935Z,23.30
2019-04-21T15:35:35.280Z,23.40
2019-04-21T15:38:05.423Z,23.60
2019-04-21T15:40:44.609Z,23.40
2019-04-21T15:43:08.466Z,23.40
2019-04-21T15:45:39.084Z,23.20
2019-04-21T15:48:09.872Z,23.30
2019-04-21T15:50:41.829Z,23.30
2019-04-21T15:53:13.961Z,23.30
2019-04-21T15:56:22.647Z,23.00
2019-04-21T15:59:10.718Z,22.90
2019-04-21T16:01:46.571Z,22.60
2019-04-21T16:04:18.759Z,22.50
2019-04-21T16:06:49.921Z,22.40
2019-04-21T16:09:22.343Z,22.60
2019-04-21T16:11:53.574Z,22.60
2019-04-21T16:14:24.826Z,22.60
2019-04-21T16:16:55.186Z,22.60
2019-04-21T16:19:27.204Z,22.60
2019-04-21T16:21:58.946Z,22.70
2019-04-21T16:24:30.785Z,22.60
2019-04-21T16:27:04.699Z,22.60
2019-04-21T16:29:33.317Z,22.50
2019-04-21T16:32:03.325Z,22.50
2019-04-21T16:34:40.121Z,22.30
2019-04-21T16:37:05.585Z,22.30
2019-04-21T16:39:35.601Z,22.20
2019-04-21T16:42:08.287Z,22.00
2019-04-21T16:44:38.905Z,21.90
2019-04-21T16:47:09.739Z,21.80
2019-04-21T16:49:40.215Z,21.60
2019-04-21T16:52:14.116Z,21.60
2019-04-21T16:54:47.530Z,21.50
2019-04-21T16:57:35.665Z,21.40
2019-04-21T17:00:10.748Z,21.30
2019-04-21T17:02:40.865Z,21.20
2019-04-21T17:05:12.149Z,21.10
2019-04-21T17:07:43.028Z,21.00
2019-04-21T17:10:14.767Z,20.80
2019-04-21T17:12:45.577Z,20.80
2019-04-21T17:16:32.109Z,20.70
2019-04-21T17:18:05.645Z,20.50
2019-04-21T17:20:34.177Z,20.40
2019-04-21T17:22:53.734Z,20.30
2019-04-21T17:25:25.930Z,20.20
2019-04-21T17:27:56.919Z,20.00
2019-04-21T17:30:28.460Z,19.90
2019-04-21T17:32:59.599Z,19.70
2019-04-21T17:35:31.072Z,19.60
2019-04-21T17:38:01.669Z,19.40
2019-04-21T17:40:32.051Z,19.30
2019-04-21T17:43:08.721Z,19.10
2019-04-21T17:45:35.244Z,19.00
2019-04-21T17:48:10.440Z,18.90
2019-04-21T17:50:56.690Z,18.70
2019-04-21T17:53:54.998Z,18.70
2019-04-21T17:56:54.045Z,18.50
2019-04-21T17:59:17.593Z,18.40
2019-04-21T18:01:47.404Z,18.30
2019-04-21T18:04:18.227Z,18.30
2019-04-21T18:07:01.839Z,18.10
2019-04-21T18:09:44.139Z,18.00
2019-04-21T18:12:11.491Z,17.80
2019-04-21T18:14:26.434Z,17.70
2019-04-21T18:16:58.269Z,17.60
2019-04-21T18:19:34.256Z,17.60
2019-04-21T18:22:37.623Z,17.60
2019-04-21T18:25:10.557Z,17.50
2019-04-21T18:27:38.824Z,17.40
2019-04-21T18:30:40.229Z,17.20
2019-04-21T18:33:18.424Z,17.20
2019-04-21T18:36:02.512Z,17.20
2019-04-21T18:38:59.687Z,17.10
2019-04-21T18:41:13.346Z,16.90
2019-04-21T18:44:17.682Z,16.90
2019-04-21T18:47:03.611Z,16.90
2019-04-21T18:49:39.060Z,16.70
2019-04-21T18:52:41.233Z,16.60
2019-04-21T18:55:09.847Z,16.50
2019-04-21T18:57:37.509Z,16.30
2019-04-21T19:00:07.921Z,16.10
2019-04-21T19:02:43.921Z,16.00
2019-04-21T19:05:11.482Z,15.80
2019-04-21T19:07:58.319Z,15.70
2019-04-21T19:10:29.599Z,15.60
2019-04-21T19:15:30.038Z,15.60
2019-04-21T19:20:50.356Z,15.40
2019-04-21T19:23:07.016Z,15.30
2019-04-21T19:25:41.368Z,15.20
2019-04-21T19:28:12.136Z,15.10
2019-04-21T19:30:50.713Z,15.10
2019-04-21T19:33:14.177Z,15.00
2019-04-21T19:35:30.459Z,15.10
2019-04-21T19:38:07.076Z,15.10
2019-04-21T19:40:54.937Z,15.00
2019-04-21T19:43:22.329Z,14.90
2019-04-21T19:45:48.450Z,14.80
2019-04-21T19:48:24.220Z,14.80
2019-04-21T19:50:58.921Z,14.70
2019-04-21T19:53:28.582Z,14.70
2019-04-21T19:55:44.128Z,14.70
2019-04-21T19:58:14.917Z,14.60
2019-04-21T20:00:46.483Z,14.50
2019-04-21T20:03:16.551Z,14.50
2019-04-21T20:05:54.617Z,14.50
2019-04-21T20:08:32.580Z,14.40
2019-04-21T20:11:13.498Z,14.40
2019-04-21T20:13:53.148Z,14.20
2019-04-21T20:16:15.090Z,14.20
2019-04-21T20:18:34.238Z,14.10
2019-04-21T20:20:56.425Z,13.90
2019-04-21T20:23:31.936Z,13.90
2019-04-21T20:26:02.271Z,13.80
2019-04-21T20:28:42.712Z,13.70
2019-04-21T20:31:18.845Z,13.60
2019-04-21T20:33:55.227Z,13.60
2019-04-21T20:38:47.044Z,13.60
2019-04-21T20:41:22.811Z,13.60
2019-04-21T20:44:00.833Z,13.50
2019-04-21T20:46:36.698Z,13.30
2019-04-21T20:49:00.409Z,13.30
2019-04-21T20:51:35.807Z,13.30
2019-04-21T20:54:01.803Z,13.20
2019-04-21T20:56:40.960Z,13.10
2019-04-21T20:59:08.067Z,13.00
2019-04-21T21:01:43.406Z,13.10
2019-04-21T21:04:12.389Z,13.10
2019-04-21T21:06:45.500Z,13.00
2019-04-21T21:09:14.072Z,12.90
2019-04-21T21:11:56.581Z,12.80
2019-04-21T21:14:23.433Z,12.70
2019-04-21T21:17:01.277Z,12.60
2019-04-21T21:19:29.086Z,12.60
2019-04-21T21:21:54.266Z,12.80
2019-04-21T21:24:37.552Z,12.80
2019-04-21T21:26:58.092Z,12.80
2019-04-21T21:29:33.543Z,13.00
2019-04-21T21:32:16.672Z,13.10
2019-04-21T21:34:42.092Z,12.90
2019-04-21T21:37:21.670Z,13.00
2019-04-21T21:39:53.682Z,12.80
2019-04-21T21:42:02.687Z,12.70
2019-04-21T21:44:32.085Z,12.40
2019-04-21T21:47:17.526Z,12.40
2019-04-21T21:49:51.304Z,12.20
2019-04-21T21:52:14.552Z,12.10
2019-04-21T21:54:37.933Z,12.10
2019-04-21T21:57:08.244Z,12.00
2019-04-21T21:59:40.002Z,12.10
2019-04-21T22:02:16.674Z,12.10
2019-04-21T22:04:51.027Z,12.10
2019-04-21T22:07:16.109Z,12.10
2019-04-21T22:09:46.305Z,12.10
2019-04-21T22:12:18.084Z,12.20
2019-04-21T22:14:51.781Z,12.30
2019-04-21T22:17:34.710Z,12.20
2019-04-21T22:20:17.059Z,12.50
2019-04-21T22:22:38.933Z,12.30
2019-04-21T22:25:06.958Z,12.10
2019-04-21T22:27:28.113Z,12.20
2019-04-21T22:30:02.972Z,12.30
2019-04-21T22:32:31.438Z,12.10
2019-04-21T22:35:08.780Z,12.10
2019-04-21T22:37:43.926Z,12.00
2019-04-21T22:40:16.650Z,11.90
2019-04-21T22:42:47.460Z,11.90
2019-04-21T22:45:11.362Z,11.90
2019-04-21T22:47:42.884Z,12.00
2019-04-21T22:50:24.570Z,12.20
2019-04-21T22:53:01.514Z,12.40
2019-04-21T22:55:30.858Z,12.50
2019-04-21T22:58:00.276Z,12.20
2019-04-21T23:00:39.056Z,12.40
2019-04-21T23:03:09.770Z,12.30
2019-04-21T23:05:37.549Z,12.10
2019-04-21T23:08:07.212Z,11.90
2019-04-21T23:10:41.475Z,11.90
2019-04-21T23:13:13.094Z,11.90
2019-04-21T23:15:46.143Z,12.10
2019-04-21T23:18:30.635Z,12.10
2019-04-21T23:21:03.319Z,11.90
2019-04-21T23:23:37.099Z,11.80
2019-04-21T23:26:09.059Z,11.80
2019-04-21T23:28:40.385Z,11.70
2019-04-21T23:31:11.115Z,11.80
2019-04-21T23:33:24.029Z,12.20
2019-04-21T23:36:06.286Z,12.30
2019-04-21T23:38:36.320Z,12.80
2019-04-21T23:41:03.490Z,13.20
2019-04-21T23:43:33.488Z,13.00
2019-04-21T23:46:13.245Z,13.20
2019-04-21T23:48:48.886Z,13.40
2019-04-21T23:51:19.577Z,13.50
2019-04-21T23:53:39.505Z,14.00
2019-04-21T23:56:13.438Z,14.10
2019-04-21T23:58:44.864Z,13.90
